Time;durP1;ratioP1;P1;durP2;ratioP2;P2;SDS_P1;SDS_P2;PMS_P1;PMS_P2;Temp;Humidity;BMP_temperature;BMP_pressure;BME280_temperature;BME280_humidity;BME280_pressure;Samples;Min_cycle;Max_cycle;Signal;HPM_P1;HPM_P2
2022/10/05 00:01:41;;;;;;;;;;;;;;;21.33;38.78;101759.73;104494;1311;72880;-86
2022/10/05 00:04:14;;;;;;;;;;;;;;;21.33;38.63;101760.79;104490;1310;75616;-84
2022/10/05 00:06:43;;;;;;;;;;;;;;;21.33;38.75;101762.08;104518;1311;62750;-88
2022/10/05 00:09:10;;;;;;;;;;;;;;;21.33;38.72;101765.83;104506;1310;61919;-84
2022/10/05 00:11:36;;;;;;;;;;;;;;;21.33;38.79;101766.00;104521;1310;73658;-87
2022/10/05 00:14:06;;;;;;;;;;;;;;;21.32;38.74;101765.48;104527;1310;62126;-83
2022/10/05 00:16:32;;;;;;;;;;;;;;;21.33;38.80;101774.09;104642;1311;62055;-83
2022/10/05 00:19:00;;;;;;;;;;;;;;;21.33;38.68;101773.38;104693;1311;62607;-85
2022/10/05 00:21:26;;;;;;;;;;;;;;;21.33;38.68;101775.34;104467;1311;62127;-83
2022/10/05 00:23:53;;;;;;;;;;;;;;;21.33;38.64;101771.77;104524;1310;62059;-85
2022/10/05 00:26:23;;;;;;;;;;;;;;;21.33;38.74;101774.27;104447;1311;62101;-81
2022/10/05 00:28:49;;;;;;;;;;;;;;;21.33;38.68;101776.92;104474;1310;62296;-84
2022/10/05 00:31:19;;;;;;;;;;;;;;;21.33;38.60;101773.73;104477;1311;62140;-84
2022/10/05 00:33:45;;;;;;;;;;;;;;;21.33;38.68;101776.60;104520;1309;75398;-81
2022/10/05 00:36:14;;;;;;;;;;;;;;;21.33;38.62;101774.98;104490;1310;62229;-84
2022/10/05 00:38:42;;;;;;;;;;;;;;;21.32;38.67;101776.80;104490;1311;62050;-86
2022/10/05 00:41:08;;;;;;;;;;;;;;;21.32;38.64;101779.86;104464;1311;62118;-86
2022/10/05 00:43:52;;;;;;;;;;;;;;;21.32;38.74;101785.05;104491;1310;62066;-82
2022/10/05 00:46:22;;;;;;;;;;;;;;;21.32;38.76;101784.88;104514;1311;62295;-86
2022/10/05 00:48:53;;;;;;;;;;;;;;;21.31;38.62;101784.55;104387;1311;62175;-83
2022/10/05 00:51:41;;;;;;;;;;;;;;;21.31;38.59;101788.32;104459;1311;72545;-85
2022/10/05 00:54:29;;;;;;;;;;;;;;;21.31;38.60;101790.29;104485;1311;75618;-85
2022/10/05 00:57:14;;;;;;;;;;;;;;;21.30;38.61;101786.58;104501;1310;62071;-85
2022/10/05 00:59:52;;;;;;;;;;;;;;;21.31;38.70;101789.42;104479;1311;62090;-83
2022/10/05 01:02:24;;;;;;;;;;;;;;;21.30;38.53;101782.82;104476;1311;73959;-83
2022/10/05 01:04:54;;;;;;;;;;;;;;;21.30;38.58;101777.98;104457;1311;75643;-83
2022/10/05 01:07:40;;;;;;;;;;;;;;;21.30;38.63;101771.56;104500;1311;61949;-86
2022/10/05 01:10:32;;;;;;;;;;;;;;;21.30;38.66;101771.03;104524;1310;62036;-83
2022/10/05 01:13:17;;;;;;;;;;;;;;;;;;;;;
2022/10/05 01:15:45;;;;;;;;;;;;;;;21.30;38.55;101784.45;104485;1310;75450;-86
2022/10/05 01:18:20;;;;;;;;;;;;;;;21.29;38.73;101793.09;104511;1311;62781;-84
2022/10/05 01:20:55;;;;;;;;;;;;;;;21.29;38.73;101803.48;104498;1311;62082;-84
2022/10/05 01:23:27;;;;;;;;;;;;;;;21.29;38.63;101810.45;104460;1311;73230;-83
2022/10/05 01:26:14;;;;;;;;;;;;;;;21.29;38.53;101804.02;104566;1309;75656;-83
2022/10/05 01:28:40;;;;;;;;;;;;;;;21.29;38.73;101806.52;104665;1309;62166;-80
2022/10/05 01:31:12;;;;;;;;;;;;;;;21.29;38.77;101809.91;104584;1309;62268;-86
2022/10/05 01:33:45;;;;;;;;;;;;;;;21.29;38.76;101816.39;104537;1308;73945;-92
2022/10/05 01:36:38;;;;;;;;;;;;;;;21.28;38.65;101818.56;104667;1307;75522;-85
2022/10/05 01:39:10;;;;;;;;;;;;;;;21.28;38.64;101814.61;104666;1309;62101;-84
2022/10/05 01:41:39;;;;;;;;;;;;;;;21.29;38.70;101817.82;104502;1308;62112;-83
2022/10/05 01:44:06;;;;;;;;;;;;;;;21.29;38.72;101823.21;104474;1308;73626;-87
2022/10/05 01:46:37;;;;;;;;;;;;;;;21.28;38.62;101824.13;104541;1309;75816;-85
2022/10/05 01:49:10;;;;;;;;;;;;;;;21.28;38.61;101826.98;104533;1309;62101;-84
2022/10/05 01:51:55;;;;;;;;;;;;;;;21.28;38.71;101825.93;104531;1308;61946;-84
2022/10/05 01:54:49;;;;;;;;;;;;;;;21.28;38.60;101829.85;104532;1309;73937;-85
2022/10/05 01:57:30;;;;;;;;;;;;;;;21.28;38.68;101835.78;104224;1314;76861;-82
2022/10/05 02:00:06;;;;;;;;;;;;;;;21.27;38.82;101841.34;104253;1314;62182;-85
2022/10/05 02:02:33;;;;;;;;;;;;;;;21.27;38.69;101843.49;104048;1315;61972;-83
2022/10/05 02:05:04;;;;;;;;;;;;;;;21.28;38.59;101849.74;104226;1314;72702;-87
2022/10/05 02:07:33;;;;;;;;;;;;;;;21.27;38.50;101857.84;104215;1314;76774;-84
2022/10/05 02:10:02;;;;;;;;;;;;;;;21.26;38.79;101863.23;104215;1314;62024;-85
2022/10/05 02:12:28;;;;;;;;;;;;;;;21.26;38.74;101865.38;104216;1314;62003;-82
2022/10/05 02:14:56;;;;;;;;;;;;;;;21.26;38.66;101867.34;104151;1314;72976;-84
2022/10/05 02:17:42;;;;;;;;;;;;;;;21.26;38.64;101869.69;104153;1314;75124;-85
2022/10/05 02:20:11;;;;;;;;;;;;;;;21.26;38.50;101873.82;104200;1315;61960;-83
2022/10/05 02:22:38;;;;;;;;;;;;;;;21.26;38.69;101876.15;104159;1315;62100;-85
2022/10/05 02:25:15;;;;;;;;;;;;;;;21.26;38.70;101882.23;104202;1314;71634;-83
2022/10/05 02:27:47;;;;;;;;;;;;;;;21.25;38.65;101885.11;104227;1314;76439;-84
2022/10/05 02:30:13;;;;;;;;;;;;;;;21.26;38.84;101883.67;104172;1314;62026;-83
2022/10/05 02:32:43;;;;;;;;;;;;;;;21.25;38.65;101887.81;104182;1314;62296;-84
2022/10/05 02:35:13;;;;;;;;;;;;;;;21.25;38.88;101892.11;104467;1309;72816;-83
2022/10/05 02:38:17;;;;;;;;;;;;;;;21.25;38.80;101895.69;104551;1308;75955;-83
2022/10/05 02:40:46;;;;;;;;;;;;;;;21.25;38.58;101899.81;104233;1314;62211;-83
2022/10/05 02:43:14;;;;;;;;;;;;;;;21.25;38.60;101902.84;104248;1314;62001;-84
2022/10/05 02:45:58;;;;;;;;;;;;;;;21.25;38.63;101902.87;104264;1314;72642;-85
2022/10/05 02:48:41;;;;;;;;;;;;;;;21.25;38.75;101896.79;104430;1314;75466;-82
2022/10/05 02:51:10;;;;;;;;;;;;;;;21.25;38.73;101898.91;104242;1314;60597;-87
2022/10/05 02:53:39;;;;;;;;;;;;;;;21.25;38.76;101900.56;104232;1315;62024;-86
2022/10/05 02:56:07;;;;;;;;;;;;;;;21.25;38.82;101907.52;104254;1314;72711;-83
2022/10/05 02:58:38;;;;;;;;;;;;;;;21.25;38.75;101917.16;104149;1314;74928;-86
2022/10/05 03:01:06;;;;;;;;;;;;;;;21.25;38.65;101912.89;104221;1314;62016;-88
2022/10/05 03:03:45;;;;;;;;;;;;;;;21.25;38.65;101908.41;104063;1316;62122;-85
2022/10/05 03:06:31;;;;;;;;;;;;;;;21.25;38.59;101909.48;104130;1314;73185;-86
2022/10/05 03:09:05;;;;;;;;;;;;;;;21.25;38.66;101913.06;103875;1314;76452;-83
2022/10/05 03:11:39;;;;;;;;;;;;;;;21.25;38.68;101918.44;103992;1314;62104;-85
2022/10/05 03:14:11;;;;;;;;;;;;;;;21.25;38.75;101924.02;104222;1312;62405;-84
2022/10/05 03:16:46;;;;;;;;;;;;;;;21.25;38.66;101924.16;104647;1308;72886;-83
2022/10/05 03:19:12;;;;;;;;;;;;;;;21.24;38.72;101925.45;104498;1309;76533;-83
2022/10/05 03:21:37;;;;;;;;;;;;;;;21.24;38.63;101931.55;104633;1308;62107;-85
2022/10/05 03:24:15;;;;;;;;;;;;;;;21.24;38.60;101938.89;104613;1308;62750;-83
2022/10/05 03:27:01;;;;;;;;;;;;;;;21.24;38.73;101943.03;104487;1309;74147;-84
2022/10/05 03:29:26;;;;;;;;;;;;;;;21.24;38.53;101943.20;104351;1309;76660;-82
2022/10/05 03:31:52;;;;;;;;;;;;;;;21.24;38.82;101945.54;104444;1308;62096;-83
2022/10/05 03:34:23;;;;;;;;;;;;;;;21.24;38.72;101944.63;104449;1307;62227;-84
2022/10/05 03:36:49;;;;;;;;;;;;;;;21.24;38.81;101945.36;104374;1309;73057;-83
2022/10/05 03:39:35;;;;;;;;;;;;;;;21.24;38.61;101947.34;104464;1308;62126;-84
2022/10/05 03:42:07;;;;;;;;;;;;;;;21.24;38.70;101949.65;104632;1309;62095;-83
2022/10/05 03:44:38;;;;;;;;;;;;;;;21.24;38.78;101955.90;104656;1308;62053;-84
2022/10/05 03:47:24;;;;;;;;;;;;;;;21.24;38.62;101958.78;104521;1309;73839;-84
2022/10/05 03:50:18;;;;;;;;;;;;;;;21.24;38.77;101960.95;104654;1308;75440;-84
2022/10/05 03:52:46;;;;;;;;;;;;;;;21.23;38.71;101961.86;104323;1315;62213;-83
2022/10/05 03:55:30;;;;;;;;;;;;;;;21.23;38.78;101968.48;103940;1314;62070;-84
2022/10/05 03:57:57;;;;;;;;;;;;;;;21.23;38.69;101975.46;104229;1314;73237;-85
2022/10/05 04:00:22;;;;;;;;;;;;;;;21.23;38.62;101981.38;104305;1315;62166;-85
2022/10/05 04:02:48;;;;;;;;;;;;;;;21.23;38.60;101979.43;104305;1315;62483;-83
2022/10/05 04:05:17;;;;;;;;;;;;;;;21.23;38.78;101979.98;104333;1313;62324;-83
2022/10/05 04:07:55;;;;;;;;;;;;;;;21.22;38.68;101983.75;104299;1314;73242;-84
2022/10/05 04:10:23;;;;;;;;;;;;;;;21.22;38.68;101984.66;104221;1315;75730;-85
2022/10/05 04:12:53;;;;;;;;;;;;;;;21.21;38.70;101986.14;104223;1315;62099;-87
2022/10/05 04:15:28;;;;;;;;;;;;;;;21.21;38.59;101987.60;104146;1314;62132;-83
2022/10/05 04:18:02;;;;;;;;;;;;;;;21.21;38.86;101989.38;104298;1315;72702;-83
2022/10/05 04:20:50;;;;;;;;;;;;;;;21.20;38.64;101988.34;104301;1315;75750;-85
2022/10/05 04:23:18;;;;;;;;;;;;;;;21.20;38.57;101993.88;104316;1315;62096;-84
2022/10/05 04:25:45;;;;;;;;;;;;;;;21.20;38.57;101999.80;104123;1314;62248;-87
2022/10/05 04:28:19;;;;;;;;;;;;;;;21.20;38.68;102003.21;104294;1315;72852;-86
2022/10/05 04:30:45;;;;;;;;;;;;;;;21.20;38.78;102007.34;104551;1309;76651;-85
2022/10/05 04:33:12;;;;;;;;;;;;;;;21.20;38.68;102013.42;104517;1309;62066;-83
2022/10/05 04:35:41;;;;;;;;;;;;;;;21.20;38.64;102015.78;104523;1309;62076;-85
2022/10/05 04:38:21;;;;;;;;;;;;;;;21.19;38.63;102019.56;104637;1309;71647;-84
2022/10/05 04:41:09;;;;;;;;;;;;;;;21.19;38.82;102026.17;104636;1309;75694;-84
2022/10/05 04:43:37;;;;;;;;;;;;;;;21.19;38.75;102034.96;104251;1315;62007;-84
2022/10/05 04:46:03;;;;;;;;;;;;;;;21.19;38.72;102042.13;104320;1315;61966;-83
2022/10/05 04:48:39;;;;;;;;;;;;;;;21.19;38.77;102051.98;104305;1315;74164;-83
2022/10/05 04:51:25;;;;;;;;;;;;;;;21.19;38.77;102051.79;104278;1314;76879;-84
2022/10/05 04:54:17;;;;;;;;;;;;;;;21.19;38.68;102051.43;104294;1315;62122;-85
2022/10/05 04:56:46;;;;;;;;;;;;;;;21.20;38.78;102046.22;104255;1315;61942;-83
2022/10/05 04:59:18;;;;;;;;;;;;;;;21.19;38.69;102048.20;104144;1314;73958;-87
2022/10/05 05:02:06;;;;;;;;;;;;;;;21.19;38.67;102049.98;104241;1315;76012;-83
2022/10/05 05:05:01;;;;;;;;;;;;;;;21.19;38.64;102048.02;103627;1319;61985;-83
2022/10/05 05:07:48;;;;;;;;;;;;;;;21.19;38.87;102052.33;102669;1326;62158;-83
2022/10/05 05:10:32;;;;;;;;;;;;;;;21.19;38.75;102055.52;102799;1326;71493;-85
2022/10/05 05:13:03;;;;;;;;;;;;;;;21.20;38.68;102061.42;102772;1325;76476;-85
2022/10/05 05:15:52;;;;;;;;;;;;;;;21.20;38.70;102061.23;102882;1325;62231;-85
2022/10/05 05:18:18;;;;;;;;;;;;;;;21.20;38.84;102059.10;102968;1325;62095;-84
2022/10/05 05:20:50;;;;;;;;;;;;;;;21.20;38.68;102059.95;103052;1323;62080;-84
2022/10/05 05:23:35;;;;;;;;;;;;;;;21.20;38.70;102060.85;103278;1322;75480;-87
2022/10/05 05:26:24;;;;;;;;;;;;;;;21.21;38.69;102068.16;103269;1322;61976;-83
2022/10/05 05:29:10;;;;;;;;;;;;;;;21.22;38.77;102067.76;103264;1323;62040;-82
2022/10/05 05:31:47;;;;;;;;;;;;;;;21.21;38.73;102068.32;102869;1323;72825;-86
2022/10/05 05:34:24;;;;;;;;;;;;;;;21.21;38.65;102065.63;103084;1323;76844;-83
2022/10/05 05:37:03;;;;;;;;;;;;;;;21.21;38.74;102067.45;103205;1323;62012;-85
2022/10/05 05:39:33;;;;;;;;;;;;;;;21.21;38.85;102068.50;103095;1323;62025;-84
2022/10/05 05:42:21;;;;;;;;;;;;;;;21.21;38.80;102067.98;103185;1317;72863;-86
2022/10/05 05:44:52;;;;;;;;;;;;;;;21.21;38.72;102069.59;104403;1308;76812;-84
2022/10/05 05:47:20;;;;;;;;;;;;;;;21.21;38.69;102072.45;104429;1310;62010;-82
2022/10/05 05:49:53;;;;;;;;;;;;;;;21.21;38.68;102077.10;104453;1308;62018;-85
2022/10/05 05:52:29;;;;;;;;;;;;;;;21.21;38.69;102082.66;104610;1307;73728;-86
2022/10/05 05:55:23;;;;;;;;;;;;;;;21.21;38.75;102089.30;104617;1308;75711;-83
2022/10/05 05:57:59;;;;;;;;;;;;;;;21.21;38.58;102093.77;104663;1309;61997;-84
2022/10/05 06:00:26;;;;;;;;;;;;;;;21.22;38.81;102099.63;104518;1309;62751;-86
2022/10/05 06:03:01;;;;;;;;;;;;;;;21.21;38.77;102106.28;104628;1308;72656;-83
2022/10/05 06:05:29;;;;;;;;;;;;;;;21.21;38.50;102110.77;104655;1309;77186;-84
2022/10/05 06:07:55;;;;;;;;;;;;;;;21.21;38.87;102112.20;104522;1309;61987;-83
2022/10/05 06:10:59;;;;;;;;;;;;;;;21.21;38.74;102114.90;104518;1309;62187;-87
2022/10/05 06:13:29;;;;;;;;;;;;;;;21.21;38.61;102116.52;104290;1315;72850;-85
2022/10/05 06:15:57;;;;;;;;;;;;;;;21.21;38.75;102117.38;104125;1314;75615;-86
2022/10/05 06:18:22;;;;;;;;;;;;;;;21.21;38.54;102121.16;104228;1315;61980;-86
2022/10/05 06:20:49;;;;;;;;;;;;;;;21.21;38.81;102125.29;104148;1315;62141;-86
2022/10/05 06:23:17;;;;;;;;;;;;;;;21.20;38.67;102127.46;104226;1315;62075;-86
2022/10/05 06:25:57;;;;;;;;;;;;;;;21.21;38.68;102132.63;104201;1315;76671;-85
2022/10/05 06:28:23;;;;;;;;;;;;;;;21.21;38.63;102132.45;104300;1315;62113;-84
2022/10/05 06:30:49;;;;;;;;;;;;;;;21.21;38.67;102127.26;104219;1315;62120;-84
2022/10/05 06:33:37;;;;;;;;;;;;;;;21.21;38.78;102132.81;104323;1315;62251;-83
2022/10/05 06:36:10;;;;;;;;;;;;;;;21.21;38.69;102139.42;104263;1315;75796;-84
2022/10/05 06:38:36;;;;;;;;;;;;;;;21.20;38.61;102141.05;104269;1314;62174;-86
2022/10/05 06:41:22;;;;;;;;;;;;;;;21.21;38.69;102143.37;104188;1315;62110;-83
2022/10/05 06:44:05;;;;;;;;;;;;;;;21.21;38.74;102140.84;104282;1308;74046;-84
2022/10/05 06:46:31;;;;;;;;;;;;;;;21.21;38.61;102138.48;104529;1309;75509;-84
2022/10/05 06:49:08;;;;;;;;;;;;;;;21.22;38.76;102138.46;104532;1309;63037;-82
2022/10/05 06:51:35;;;;;;;;;;;;;;;21.22;38.61;102137.21;104554;1309;62002;-85
2022/10/05 06:54:19;;;;;;;;;;;;;;;21.22;38.70;102140.05;104305;1309;74548;-84
2022/10/05 06:56:48;;;;;;;;;;;;;;;21.23;38.73;102140.41;104486;1308;75930;-81
2022/10/05 06:59:17;;;;;;;;;;;;;;;21.24;38.71;102141.42;104537;1307;61992;-86
2022/10/05 07:01:58;;;;;;;;;;;;;;;21.25;38.89;102145.30;104544;1309;62024;-82
2022/10/05 07:04:33;;;;;;;;;;;;;;;21.25;38.89;102140.11;104525;1309;72988;-85
2022/10/05 07:07:09;;;;;;;;;;;;;;;21.26;38.88;102146.67;104587;1309;76157;-84
2022/10/05 07:09:53;;;;;;;;;;;;;;;21.27;39.05;102151.11;104677;1309;62056;-84
2022/10/05 07:12:20;;;;;;;;;;;;;;;21.28;38.97;102152.49;104639;1307;62067;-87
2022/10/05 07:15:04;;;;;;;;;;;;;;;21.28;38.99;102152.67;104558;1308;72835;-86
2022/10/05 07:17:37;;;;;;;;;;;;;;;21.29;38.93;102155.85;104484;1308;75508;-82
2022/10/05 07:20:22;;;;;;;;;;;;;;;21.30;38.98;102157.08;104627;1308;61929;-84
2022/10/05 07:22:58;;;;;;;;;;;;;;;21.30;38.89;102161.70;104540;1309;62087;-88
2022/10/05 07:25:28;;;;;;;;;;;;;;;21.31;38.96;102161.33;104529;1309;73257;-83
2022/10/05 07:28:03;;;;;;;;;;;;;;;21.31;38.98;102161.84;104636;1309;76945;-84
2022/10/05 07:30:29;;;;;;;;;;;;;;;21.31;39.05;102160.23;104628;1309;62114;-85
2022/10/05 07:33:04;;;;;;;;;;;;;;;21.32;39.13;102158.57;104548;1308;62637;-83
2022/10/05 07:38:31;;;;;;;;;;;;;;;21.32;39.27;102152.27;104655;1308;76588;-84
2022/10/05 07:41:21;;;;;;;;;;;;;;;21.33;39.15;102160.30;104583;1308;62033;-83
2022/10/05 07:44:07;;;;;;;;;;;;;;;21.33;39.03;102162.97;104569;1308;61989;-86
2022/10/05 07:46:36;;;;;;;;;;;;;;;21.34;39.29;102166.52;104738;1309;72642;-82
2022/10/05 07:49:04;;;;;;;;;;;;;;;21.35;39.17;102170.08;104747;1308;75521;-83
2022/10/05 07:51:40;;;;;;;;;;;;;;;21.35;39.25;102169.71;104506;1309;62011;-83
2022/10/05 07:54:09;;;;;;;;;;;;;;;21.35;39.35;102173.63;104532;1308;62658;-84
2022/10/05 07:56:42;;;;;;;;;;;;;;;21.35;39.46;102179.52;104552;1308;73852;-84
2022/10/05 07:59:26;;;;;;;;;;;;;;;21.36;39.57;102183.07;104533;1308;75087;-86
2022/10/05 08:01:54;;;;;;;;;;;;;;;21.36;39.48;102182.70;104656;1308;62113;-86
2022/10/05 08:04:25;;;;;;;;;;;;;;;21.36;39.37;102183.74;104534;1309;62100;-87
2022/10/05 08:06:54;;;;;;;;;;;;;;;21.37;39.53;102190.91;104423;1309;72814;-84
2022/10/05 08:09:30;;;;;;;;;;;;;;;21.37;39.55;102193.77;104288;1309;74513;-83
2022/10/05 08:11:56;;;;;;;;;;;;;;;21.37;39.38;102198.03;104431;1307;62024;-83
2022/10/05 08:14:24;;;;;;;;;;;;;;;21.38;39.56;102199.09;104290;1307;62065;-83
2022/10/05 08:16:51;;;;;;;;;;;;;;;21.38;39.58;102202.29;104396;1309;73944;-84
2022/10/05 08:19:43;;;;;;;;;;;;;;;21.39;39.72;102199.58;104402;1308;76767;-83
2022/10/05 08:22:12;;;;;;;;;;;;;;;21.39;39.70;102203.52;104522;1308;62001;-84
2022/10/05 08:24:40;;;;;;;;;;;;;;;21.39;39.48;102204.58;104406;1308;62025;-83
2022/10/05 08:27:09;;;;;;;;;;;;;;;21.40;39.53;102202.39;104318;1309;73872;-83
2022/10/05 08:29:46;;;;;;;;;;;;;;;21.40;39.79;102208.48;104500;1309;75756;-83
2022/10/05 08:32:39;;;;;;;;;;;;;;;21.41;39.87;102207.35;104484;1308;62107;-83
2022/10/05 08:35:13;;;;;;;;;;;;;;;21.41;39.62;102206.11;104582;1309;62053;-84
2022/10/05 08:37:40;;;;;;;;;;;;;;;21.41;39.66;102202.34;104477;1308;73151;-83
2022/10/05 08:40:17;;;;;;;;;;;;;;;21.41;39.87;102202.14;104514;1308;62164;-83
2022/10/05 08:42:52;;;;;;;;;;;;;;;21.41;39.69;102209.66;104580;1309;61987;-86
2022/10/05 08:45:23;;;;;;;;;;;;;;;21.41;39.74;102206.80;104563;1308;61881;-86
2022/10/05 08:47:52;;;;;;;;;;;;;;;21.41;39.76;102209.99;104552;1308;72846;-83
2022/10/05 08:50:30;;;;;;;;;;;;;;;21.41;39.76;102208.23;104543;1308;75393;-85
2022/10/05 08:53:25;;;;;;;;;;;;;;;;;;;;;
2022/10/05 08:56:23;;;;;;;;;;;;;;;21.41;39.86;102207.73;104647;1308;62060;-84
2022/10/05 08:59:07;;;;;;;;;;;;;;;21.41;39.98;102208.43;104357;1311;73949;-83
2022/10/05 09:01:59;;;;;;;;;;;;;;;21.41;39.84;102210.21;104377;1311;75548;-84
2022/10/05 09:04:30;;;;;;;;;;;;;;;21.40;39.97;102214.16;104042;1313;62103;-84
2022/10/05 09:07:00;;;;;;;;;;;;;;;21.41;39.76;102217.01;104403;1312;62032;-83
2022/10/05 09:09:44;;;;;;;;;;;;;;;21.41;39.74;102215.77;104387;1311;72755;-84
2022/10/05 09:12:21;;;;;;;;;;;;;;;21.41;40.02;102218.64;104391;1311;76587;-83
2022/10/05 09:14:58;;;;;;;;;;;;;;;21.41;39.95;102216.13;104403;1311;61967;-86
2022/10/05 09:17:29;;;;;;;;;;;;;;;21.41;39.96;102218.45;104389;1311;62058;-83
2022/10/05 09:20:13;;;;;;;;;;;;;;;21.41;39.95;102219.89;104382;1311;72773;-83
2022/10/05 09:22:42;;;;;;;;;;;;;;;21.41;40.02;102215.58;104399;1311;75621;-86
2022/10/05 09:25:21;;;;;;;;;;;;;;;21.41;40.03;102216.49;104530;1308;61974;-84
2022/10/05 09:28:23;;;;;;;;;;;;;;;21.41;39.86;102217.02;104486;1309;62105;-83
2022/10/05 09:31:16;;;;;;;;;;;;;;;21.40;39.99;102218.83;104042;1317;73857;-84
2022/10/05 09:33:52;;;;;;;;;;;;;;;21.41;39.83;102213.27;104020;1317;75493;-83
2022/10/05 09:36:30;;;;;;;;;;;;;;;21.41;39.98;102213.98;103980;1316;62194;-84
2022/10/05 09:38:56;;;;;;;;;;;;;;;21.41;39.85;102218.98;104067;1317;62641;-87
2022/10/05 09:41:34;;;;;;;;;;;;;;;21.41;39.92;102219.34;104156;1316;62130;-86
2022/10/05 09:44:18;;;;;;;;;;;;;;;21.41;40.14;102217.92;103948;1317;76587;-86
2022/10/05 09:46:50;;;;;;;;;;;;;;;21.41;40.00;102217.19;104107;1316;62104;-84
2022/10/05 09:49:34;;;;;;;;;;;;;;;21.41;40.20;102210.94;103960;1317;62188;-81
2022/10/05 09:52:24;;;;;;;;;;;;;;;21.41;40.04;102215.59;103929;1317;72458;-85
2022/10/05 09:54:55;;;;;;;;;;;;;;;21.41;39.98;102216.67;103946;1316;75434;-85
2022/10/05 09:57:33;;;;;;;;;;;;;;;21.40;40.10;102217.39;104165;1316;62230;-85
2022/10/05 10:00:22;;;;;;;;;;;;;;;21.41;40.16;102215.77;104165;1316;62004;-85
2022/10/05 10:02:56;;;;;;;;;;;;;;;21.41;40.08;102212.02;102519;1325;656182;-85
2022/10/05 10:05:22;;;;;;;;;;;;;;;21.41;39.96;102211.10;103349;1317;76912;-86
2022/10/05 10:07:59;;;;;;;;;;;;;;;21.41;40.13;102206.97;104081;1317;62081;-84
2022/10/05 10:10:28;;;;;;;;;;;;;;;21.41;39.96;102203.77;103769;1318;62070;-83
2022/10/05 10:13:12;;;;;;;;;;;;;;;21.41;40.19;102198.40;104054;1317;72904;-82
2022/10/05 10:15:56;;;;;;;;;;;;;;;21.40;40.01;102190.00;103968;1317;75586;-84
2022/10/05 10:18:40;;;;;;;;;;;;;;;21.40;40.18;102194.52;104274;1317;62004;-84
2022/10/05 10:21:21;;;;;;;;;;;;;;;21.40;40.26;102189.68;104214;1317;60588;-84
2022/10/05 10:23:58;;;;;;;;;;;;;;;21.40;39.92;102176.42;104061;1317;73738;-84
2022/10/05 10:26:43;;;;;;;;;;;;;;;21.39;40.23;102176.44;104079;1317;75303;-84
2022/10/05 10:29:47;;;;;;;;;;;;;;;21.39;40.27;102169.10;104078;1317;62125;-83
2022/10/05 10:32:33;;;;;;;;;;;;;;;21.39;40.19;102171.96;103131;1323;62002;-85
2022/10/05 10:35:08;;;;;;;;;;;;;;;21.39;40.14;102174.13;103107;1323;74457;-85
2022/10/05 10:37:52;;;;;;;;;;;;;;;21.39;40.17;102172.69;103695;1317;75664;-82
2022/10/05 10:40:31;;;;;;;;;;;;;;;21.39;40.14;102163.73;104254;1309;62003;-83
2022/10/05 10:43:16;;;;;;;;;;;;;;;21.39;40.26;102159.45;104420;1309;61977;-82
2022/10/05 10:45:52;;;;;;;;;;;;;;;21.39;40.31;102153.90;104431;1309;73648;-81
2022/10/05 10:48:18;;;;;;;;;;;;;;;21.39;40.03;102150.52;104398;1311;76609;-81
2022/10/05 10:50:50;;;;;;;;;;;;;;;21.38;40.06;102145.52;104461;1308;62229;-83
2022/10/05 10:53:18;;;;;;;;;;;;;;;21.38;40.18;102141.21;104385;1311;62036;-84
2022/10/05 10:56:04;;;;;;;;;;;;;;;21.38;40.28;102136.38;104540;1308;74205;-81
2022/10/05 10:58:29;;;;;;;;;;;;;;;21.39;40.10;102136.73;104392;1308;75584;-80
2022/10/05 11:01:14;;;;;;;;;;;;;;;21.38;40.21;102131.05;104441;1308;62102;-84
2022/10/05 11:03:42;;;;;;;;;;;;;;;21.39;40.19;102137.09;104487;1308;62262;-83
2022/10/05 11:06:23;;;;;;;;;;;;;;;21.39;40.20;102135.47;104518;1308;71943;-87
2022/10/05 11:08:49;;;;;;;;;;;;;;;21.38;40.05;102134.95;104423;1311;76666;-84
2022/10/05 11:11:38;;;;;;;;;;;;;;;21.38;40.21;102135.30;104539;1308;61970;-84
2022/10/05 11:14:31;;;;;;;;;;;;;;;21.38;40.11;102133.89;104527;1309;62101;-83
2022/10/05 11:17:20;;;;;;;;;;;;;;;21.38;40.21;102134.45;104521;1309;73819;-83
2022/10/05 11:19:59;;;;;;;;;;;;;;;21.38;40.12;102135.36;104323;1309;75481;-84
2022/10/05 11:22:54;;;;;;;;;;;;;;;21.37;40.18;102141.80;104431;1311;62080;-86
2022/10/05 11:25:30;;;;;;;;;;;;;;;21.37;40.10;102141.45;104216;1312;61982;-85
2022/10/05 11:28:15;;;;;;;;;;;;;;;21.37;40.26;102144.33;104487;1309;73654;-85
2022/10/05 11:30:49;;;;;;;;;;;;;;;21.37;40.12;102151.31;104492;1311;76136;-83
2022/10/05 11:33:18;;;;;;;;;;;;;;;21.37;40.23;102150.42;104435;1311;61983;-84
2022/10/05 11:36:02;;;;;;;;;;;;;;;21.37;40.18;102147.03;104477;1311;61994;-87
2022/10/05 11:38:58;;;;;;;;;;;;;;;21.37;40.10;102150.08;104452;1311;73851;-83
2022/10/05 11:41:27;;;;;;;;;;;;;;;21.36;40.31;102145.62;104217;1312;75522;-86
2022/10/05 11:44:12;;;;;;;;;;;;;;;21.37;40.34;102144.53;104425;1311;62109;-84
2022/10/05 11:46:40;;;;;;;;;;;;;;;21.37;40.22;102139.87;104516;1309;61948;-84
2022/10/05 11:49:34;;;;;;;;;;;;;;;21.36;40.27;102138.98;104486;1311;72908;-85
2022/10/05 11:52:33;;;;;;;;;;;;;;;21.37;40.18;102137.55;104455;1311;76760;-85
2022/10/05 11:55:01;;;;;;;;;;;;;;;21.36;40.24;102130.06;104313;1310;62103;-83
2022/10/05 11:57:27;;;;;;;;;;;;;;;21.36;40.15;102120.39;104411;1311;62016;-84
2022/10/05 12:00:06;;;;;;;;;;;;;;;21.36;40.29;102109.82;104401;1311;72744;-85
2022/10/05 12:02:31;;;;;;;;;;;;;;;21.36;40.09;102106.79;104346;1311;75397;-84
2022/10/05 12:05:03;;;;;;;;;;;;;;;21.36;40.28;102103.38;104336;1309;62225;-82
2022/10/05 12:07:29;;;;;;;;;;;;;;;21.36;40.13;102093.35;104400;1309;62002;-84
2022/10/05 12:10:13;;;;;;;;;;;;;;;21.36;40.22;102082.23;104497;1309;62093;-85
2022/10/05 12:12:43;;;;;;;;;;;;;;;21.36;40.20;102084.01;104494;1309;76709;-85
2022/10/05 12:15:13;;;;;;;;;;;;;;;21.37;40.01;102083.27;104467;1311;62092;-85
2022/10/05 12:17:51;;;;;;;;;;;;;;;21.37;40.19;102083.61;104283;1311;62102;-85
2022/10/05 12:20:45;;;;;;;;;;;;;;;21.37;40.06;102087.73;104358;1310;72955;-85
2022/10/05 12:23:20;;;;;;;;;;;;;;;21.38;39.99;102097.55;104165;1311;76728;-84
2022/10/05 12:26:00;;;;;;;;;;;;;;;21.38;40.05;102094.33;104481;1309;61939;-84
2022/10/05 12:28:32;;;;;;;;;;;;;;;21.39;40.02;102095.34;104433;1309;61967;-83
2022/10/05 12:31:18;;;;;;;;;;;;;;;21.39;39.95;102091.58;104533;1309;72846;-84
2022/10/05 12:33:52;;;;;;;;;;;;;;;21.40;40.00;102092.79;104157;1316;76638;-84
2022/10/05 12:36:21;;;;;;;;;;;;;;;21.39;39.92;102092.45;104205;1316;62017;-83
2022/10/05 12:38:46;;;;;;;;;;;;;;;21.40;39.94;102095.98;103965;1317;62722;-84
2022/10/05 12:41:35;;;;;;;;;;;;;;;21.40;39.83;102094.72;104186;1316;62249;-86
2022/10/05 12:44:06;;;;;;;;;;;;;;;21.40;40.01;102097.42;103032;1326;75650;-89
2022/10/05 12:46:42;;;;;;;;;;;;;;;21.40;39.95;102101.36;103100;1325;62025;-86
2022/10/05 12:49:27;;;;;;;;;;;;;;;21.40;39.91;102098.32;103214;1326;62493;-84
2022/10/05 12:51:56;;;;;;;;;;;;;;;21.40;39.89;102097.40;102864;1325;73122;-83
2022/10/05 12:54:34;;;;;;;;;;;;;;;21.41;39.86;102095.61;103030;1325;75570;-87
2022/10/05 12:57:26;;;;;;;;;;;;;;;21.41;40.00;102100.62;103035;1325;62138;-83
2022/10/05 12:59:56;;;;;;;;;;;;;;;21.41;39.86;102103.47;102551;1332;62040;-83
2022/10/05 13:02:29;;;;;;;;;;;;;;;21.41;39.72;102099.38;102573;1331;72795;-84
2022/10/05 13:04:59;;;;;;;;;;;;;;;21.40;39.90;102100.63;102533;1331;75797;-85
2022/10/05 13:07:24;;;;;;;;;;;;;;;21.40;39.91;102099.02;102492;1331;62334;-85
2022/10/05 13:09:56;;;;;;;;;;;;;;;21.40;39.96;102092.77;102537;1332;63338;-84
2022/10/05 13:12:25;;;;;;;;;;;;;;;21.39;39.87;102086.36;102962;1326;72757;-86
2022/10/05 13:14:54;;;;;;;;;;;;;;;21.40;39.88;102087.25;102992;1325;75615;-85